sensor_id;sensor_type;location;lat;lon;timestamp;temperature;humidity
39675;DHT22;27790;50.840;4.386;2023-04-01T00:00:22;12.00;99.90
39675;DHT22;27790;50.840;4.386;2023-04-01T00:02:47;11.90;99.90
39675;DHT22;27790;50.840;4.386;2023-04-01T00:05:13;11.90;99.90
39675;DHT22;27790;50.840;4.386;2023-04-01T00:07:40;11.90;99.90
39675;DHT22;27790;50.840;4.386;2023-04-01T00:10:07;11.90;99.90
39675;DHT22;27790;50.840;4.386;2023-04-01T00:12:34;11.90;99.90
39675;DHT22;27790;50.840;4.386;2023-04-01T00:15:00;11.90;99.90
39675;DHT22;27790;50.840;4.386;2023-04-01T00:17:26;11.80;99.90
39675;DHT22;27790;50.840;4.386;2023-04-01T00:19:54;11.80;99.90
39675;DHT22;27790;50.840;4.386;2023-04-01T00:22:20;11.90;99.90
39675;DHT22;27790;50.840;4.386;2023-04-01T00:24:45;11.90;99.90
39675;DHT22;27790;50.840;4.386;2023-04-01T00:27:12;11.90;99.90
39675;DHT22;27790;50.840;4.386;2023-04-01T00:29:37;11.90;99.90
39675;DHT22;27790;50.840;4.386;2023-04-01T00:32:03;11.90;99.90
39675;DHT22;27790;50.840;4.386;2023-04-01T00:34:28;11.80;99.90
39675;DHT22;27790;50.840;4.386;2023-04-01T00:36:54;11.80;99.90
39675;DHT22;27790;50.840;4.386;2023-04-01T00:39:22;11.80;99.90
39675;DHT22;27790;50.840;4.386;2023-04-01T00:41:48;11.70;99.90
39675;DHT22;27790;50.840;4.386;2023-04-01T00:44:26;11.70;99.90
39675;DHT22;27790;50.840;4.386;2023-04-01T00:46:51;11.70;99.90
39675;DHT22;27790;50.840;4.386;2023-04-01T00:49:23;11.70;99.90
39675;DHT22;27790;50.840;4.386;2023-04-01T00:51:53;11.70;99.90
39675;DHT22;27790;50.840;4.386;2023-04-01T00:54:21;11.60;99.90
39675;DHT22;27790;50.840;4.386;2023-04-01T00:57:00;11.60;99.90
39675;DHT22;27790;50.840;4.386;2023-04-01T00:59:35;11.60;99.90
39675;DHT22;27790;50.840;4.386;2023-04-01T01:02:04;11.70;99.90
39675;DHT22;27790;50.840;4.386;2023-04-01T01:04:33;11.80;99.90
39675;DHT22;27790;50.840;4.386;2023-04-01T01:24:17;11.70;99.90
39675;DHT22;27790;50.840;4.386;2023-04-01T01:31:50;11.80;99.90
39675;DHT22;27790;50.840;4.386;2023-04-01T01:34:28;11.80;99.90
39675;DHT22;27790;50.840;4.386;2023-04-01T01:37:01;11.80;99.90
39675;DHT22;27790;50.840;4.386;2023-04-01T01:39:30;11.80;99.90
39675;DHT22;27790;50.840;4.386;2023-04-01T01:42:01;11.80;99.90
39675;DHT22;27790;50.840;4.386;2023-04-01T01:44:30;11.80;99.90
39675;DHT22;27790;50.840;4.386;2023-04-01T01:47:08;11.90;99.90
39675;DHT22;27790;50.840;4.386;2023-04-01T01:49:35;11.90;99.90
39675;DHT22;27790;50.840;4.386;2023-04-01T01:52:01;11.90;99.90
39675;DHT22;27790;50.840;4.386;2023-04-01T01:54:27;11.90;99.90
39675;DHT22;27790;50.840;4.386;2023-04-01T01:57:04;11.80;99.90
39675;DHT22;27790;50.840;4.386;2023-04-01T01:59:33;11.70;99.90
39675;DHT22;27790;50.840;4.386;2023-04-01T02:02:00;11.60;99.90
39675;DHT22;27790;50.840;4.386;2023-04-01T02:04:37;11.70;99.90
39675;DHT22;27790;50.840;4.386;2023-04-01T02:07:08;11.70;99.90
39675;DHT22;27790;50.840;4.386;2023-04-01T02:09:36;11.80;99.90
39675;DHT22;27790;50.840;4.386;2023-04-01T02:12:10;11.80;99.90
39675;DHT22;27790;50.840;4.386;2023-04-01T02:14:52;11.80;99.90
39675;DHT22;27790;50.840;4.386;2023-04-01T02:17:22;11.80;99.90
39675;DHT22;27790;50.840;4.386;2023-04-01T02:20:15;11.80;99.90
39675;DHT22;27790;50.840;4.386;2023-04-01T02:22:54;11.80;99.90
39675;DHT22;27790;50.840;4.386;2023-04-01T02:25:29;11.80;99.90
39675;DHT22;27790;50.840;4.386;2023-04-01T02:27:57;11.80;99.90
39675;DHT22;27790;50.840;4.386;2023-04-01T02:30:23;11.80;99.90
39675;DHT22;27790;50.840;4.386;2023-04-01T02:32:51;11.70;99.90
39675;DHT22;27790;50.840;4.386;2023-04-01T02:35:17;11.60;99.90
39675;DHT22;27790;50.840;4.386;2023-04-01T02:37:46;11.60;99.90
39675;DHT22;27790;50.840;4.386;2023-04-01T02:40:15;11.70;99.90
39675;DHT22;27790;50.840;4.386;2023-04-01T02:42:41;11.60;99.90
39675;DHT22;27790;50.840;4.386;2023-04-01T02:45:07;11.60;99.90
39675;DHT22;27790;50.840;4.386;2023-04-01T02:47:33;11.50;99.90
39675;DHT22;27790;50.840;4.386;2023-04-01T02:49:59;11.60;99.90
39675;DHT22;27790;50.840;4.386;2023-04-01T02:52:25;11.60;99.90
39675;DHT22;27790;50.840;4.386;2023-04-01T02:54:50;11.70;99.90
39675;DHT22;27790;50.840;4.386;2023-04-01T02:57:16;11.70;99.90
39675;DHT22;27790;50.840;4.386;2023-04-01T02:59:42;11.70;99.90
39675;DHT22;27790;50.840;4.386;2023-04-01T03:02:07;11.80;99.90
39675;DHT22;27790;50.840;4.386;2023-04-01T03:04:33;11.80;99.90
39675;DHT22;27790;50.840;4.386;2023-04-01T03:06:58;11.80;99.90
39675;DHT22;27790;50.840;4.386;2023-04-01T03:09:25;11.70;99.90
39675;DHT22;27790;50.840;4.386;2023-04-01T03:11:54;11.70;99.90
39675;DHT22;27790;50.840;4.386;2023-04-01T03:14:20;11.60;99.90
39675;DHT22;27790;50.840;4.386;2023-04-01T03:16:45;11.50;99.90
39675;DHT22;27790;50.840;4.386;2023-04-01T03:19:11;11.40;99.90
39675;DHT22;27790;50.840;4.386;2023-04-01T03:21:36;11.40;99.90
39675;DHT22;27790;50.840;4.386;2023-04-01T03:24:02;11.40;99.90
39675;DHT22;27790;50.840;4.386;2023-04-01T03:26:28;11.40;99.90
39675;DHT22;27790;50.840;4.386;2023-04-01T03:28:53;11.30;99.90
39675;DHT22;27790;50.840;4.386;2023-04-01T03:31:20;11.30;99.90
39675;DHT22;27790;50.840;4.386;2023-04-01T03:33:46;11.30;99.90
39675;DHT22;27790;50.840;4.386;2023-04-01T03:36:12;11.40;99.90
39675;DHT22;27790;50.840;4.386;2023-04-01T03:38:39;11.40;99.90
39675;DHT22;27790;50.840;4.386;2023-04-01T03:41:05;11.40;99.90
39675;DHT22;27790;50.840;4.386;2023-04-01T03:43:32;11.30;99.90
39675;DHT22;27790;50.840;4.386;2023-04-01T03:45:58;11.30;99.90
39675;DHT22;27790;50.840;4.386;2023-04-01T03:48:24;11.40;99.90
39675;DHT22;27790;50.840;4.386;2023-04-01T03:50:51;11.40;99.90
39675;DHT22;27790;50.840;4.386;2023-04-01T03:53:17;11.40;99.90
39675;DHT22;27790;50.840;4.386;2023-04-01T03:55:42;11.50;99.90
39675;DHT22;27790;50.840;4.386;2023-04-01T03:58:08;11.50;99.90
39675;DHT22;27790;50.840;4.386;2023-04-01T04:00:35;11.60;99.90
39675;DHT22;27790;50.840;4.386;2023-04-01T04:03:01;11.50;99.90
39675;DHT22;27790;50.840;4.386;2023-04-01T04:05:27;11.40;99.90
39675;DHT22;27790;50.840;4.386;2023-04-01T04:07:53;11.50;99.90
39675;DHT22;27790;50.840;4.386;2023-04-01T04:10:19;11.50;99.90
39675;DHT22;27790;50.840;4.386;2023-04-01T04:12:45;11.50;99.90
39675;DHT22;27790;50.840;4.386;2023-04-01T04:15:10;11.50;99.90
39675;DHT22;27790;50.840;4.386;2023-04-01T04:17:36;11.60;99.90
39675;DHT22;27790;50.840;4.386;2023-04-01T04:20:02;11.60;99.90
39675;DHT22;27790;50.840;4.386;2023-04-01T04:22:28;11.60;99.90
39675;DHT22;27790;50.840;4.386;2023-04-01T04:24:54;11.60;99.90
39675;DHT22;27790;50.840;4.386;2023-04-01T04:27:20;11.50;99.90
39675;DHT22;27790;50.840;4.386;2023-04-01T04:29:45;11.60;99.90
39675;DHT22;27790;50.840;4.386;2023-04-01T04:32:11;11.60;99.90
39675;DHT22;27790;50.840;4.386;2023-04-01T04:34:37;11.40;99.90
39675;DHT22;27790;50.840;4.386;2023-04-01T04:37:02;11.40;99.90
39675;DHT22;27790;50.840;4.386;2023-04-01T04:39:28;11.40;99.90
39675;DHT22;27790;50.840;4.386;2023-04-01T04:41:54;11.30;99.90
39675;DHT22;27790;50.840;4.386;2023-04-01T04:44:20;11.20;99.90
39675;DHT22;27790;50.840;4.386;2023-04-01T04:46:45;11.30;99.90
39675;DHT22;27790;50.840;4.386;2023-04-01T04:49:11;11.20;99.90
39675;DHT22;27790;50.840;4.386;2023-04-01T04:51:36;11.20;99.90
39675;DHT22;27790;50.840;4.386;2023-04-01T04:54:03;11.10;99.90
39675;DHT22;27790;50.840;4.386;2023-04-01T04:56:29;11.10;99.90
39675;DHT22;27790;50.840;4.386;2023-04-01T04:58:56;11.10;99.90
39675;DHT22;27790;50.840;4.386;2023-04-01T05:01:21;11.20;99.90
39675;DHT22;27790;50.840;4.386;2023-04-01T05:03:47;11.20;99.90
39675;DHT22;27790;50.840;4.386;2023-04-01T05:06:17;11.30;99.90
39675;DHT22;27790;50.840;4.386;2023-04-01T05:08:44;11.30;99.90
39675;DHT22;27790;50.840;4.386;2023-04-01T05:11:14;11.40;99.90
39675;DHT22;27790;50.840;4.386;2023-04-01T05:13:40;11.40;99.90
39675;DHT22;27790;50.840;4.386;2023-04-01T05:16:14;11.30;99.90
39675;DHT22;27790;50.840;4.386;2023-04-01T05:18:40;11.30;99.90
39675;DHT22;27790;50.840;4.386;2023-04-01T05:21:08;11.30;99.90
39675;DHT22;27790;50.840;4.386;2023-04-01T05:23:34;11.30;99.90
39675;DHT22;27790;50.840;4.386;2023-04-01T05:26:09;11.30;99.90
39675;DHT22;27790;50.840;4.386;2023-04-01T05:28:35;11.20;99.90
39675;DHT22;27790;50.840;4.386;2023-04-01T05:31:01;11.10;99.90
39675;DHT22;27790;50.840;4.386;2023-04-01T05:33:27;11.10;99.90
39675;DHT22;27790;50.840;4.386;2023-04-01T05:35:54;11.20;99.90
39675;DHT22;27790;50.840;4.386;2023-04-01T05:38:20;11.10;99.90
39675;DHT22;27790;50.840;4.386;2023-04-01T05:40:46;11.10;99.90
39675;DHT22;27790;50.840;4.386;2023-04-01T05:43:12;11.20;99.90
39675;DHT22;27790;50.840;4.386;2023-04-01T05:45:37;11.20;99.90
39675;DHT22;27790;50.840;4.386;2023-04-01T05:48:03;11.20;99.90
39675;DHT22;27790;50.840;4.386;2023-04-01T05:50:29;11.10;99.90
39675;DHT22;27790;50.840;4.386;2023-04-01T05:52:54;11.20;99.90
39675;DHT22;27790;50.840;4.386;2023-04-01T05:55:20;11.30;99.90
39675;DHT22;27790;50.840;4.386;2023-04-01T05:57:46;11.30;99.90
39675;DHT22;27790;50.840;4.386;2023-04-01T06:00:14;11.30;99.90
39675;DHT22;27790;50.840;4.386;2023-04-01T06:02:40;11.40;99.90
39675;DHT22;27790;50.840;4.386;2023-04-01T06:05:19;11.40;99.90
39675;DHT22;27790;50.840;4.386;2023-04-01T06:07:45;11.30;99.90
39675;DHT22;27790;50.840;4.386;2023-04-01T06:10:19;11.30;99.90
39675;DHT22;27790;50.840;4.386;2023-04-01T06:37:26;11.10;99.90
39675;DHT22;27790;50.840;4.386;2023-04-01T06:43:05;11.30;99.90
39675;DHT22;27790;50.840;4.386;2023-04-01T06:56:14;11.50;99.90
39675;DHT22;27790;50.840;4.386;2023-04-01T06:58:53;11.60;99.90
39675;DHT22;27790;50.840;4.386;2023-04-01T07:01:30;11.60;99.90
39675;DHT22;27790;50.840;4.386;2023-04-01T07:04:01;11.60;99.90
39675;DHT22;27790;50.840;4.386;2023-04-01T07:06:38;11.70;99.90
39675;DHT22;27790;50.840;4.386;2023-04-01T07:09:19;11.60;99.90
39675;DHT22;27790;50.840;4.386;2023-04-01T07:11:46;11.50;99.90
39675;DHT22;27790;50.840;4.386;2023-04-01T07:14:17;11.60;99.90
39675;DHT22;27790;50.840;4.386;2023-04-01T07:17:08;11.60;99.90
39675;DHT22;27790;50.840;4.386;2023-04-01T07:22:46;11.70;99.90
39675;DHT22;27790;50.840;4.386;2023-04-01T07:25:25;11.60;99.90
39675;DHT22;27790;50.840;4.386;2023-04-01T07:27:55;11.40;99.90
39675;DHT22;27790;50.840;4.386;2023-04-01T07:30:23;11.40;99.90
39675;DHT22;27790;50.840;4.386;2023-04-01T07:35:40;11.50;99.90
39675;DHT22;27790;50.840;4.386;2023-04-01T07:51:22;11.40;99.90
39675;DHT22;27790;50.840;4.386;2023-04-01T07:53:59;11.50;99.90
39675;DHT22;27790;50.840;4.386;2023-04-01T07:57:15;11.60;99.90
39675;DHT22;27790;50.840;4.386;2023-04-01T08:02:28;11.60;99.90
39675;DHT22;27790;50.840;4.386;2023-04-01T08:20:51;11.60;99.90
39675;DHT22;27790;50.840;4.386;2023-04-01T08:23:22;11.60;99.90
39675;DHT22;27790;50.840;4.386;2023-04-01T08:28:41;11.70;99.90
39675;DHT22;27790;50.840;4.386;2023-04-01T08:31:22;11.80;99.90
39675;DHT22;27790;50.840;4.386;2023-04-01T08:33:53;11.80;99.90
39675;DHT22;27790;50.840;4.386;2023-04-01T08:39:02;11.80;99.90
39675;DHT22;27790;50.840;4.386;2023-04-01T09:08:15;11.80;99.90
39675;DHT22;27790;50.840;4.386;2023-04-01T09:30:04;12.00;99.90
39675;DHT22;27790;50.840;4.386;2023-04-01T09:37:56;12.10;99.90
39675;DHT22;27790;50.840;4.386;2023-04-01T09:40:44;12.00;99.90
39675;DHT22;27790;50.840;4.386;2023-04-01T09:46:09;12.30;99.90
39675;DHT22;27790;50.840;4.386;2023-04-01T09:56:57;12.70;99.90
39675;DHT22;27790;50.840;4.386;2023-04-01T10:10:26;12.50;99.90
39675;DHT22;27790;50.840;4.386;2023-04-01T10:16:08;12.80;99.90
39675;DHT22;27790;50.840;4.386;2023-04-01T10:24:39;12.90;99.90
39675;DHT22;27790;50.840;4.386;2023-04-01T10:58:09;12.90;99.90
39675;DHT22;27790;50.840;4.386;2023-04-01T11:19:36;13.20;99.90
39675;DHT22;27790;50.840;4.386;2023-04-01T11:33:05;12.90;99.90
39675;DHT22;27790;50.840;4.386;2023-04-01T11:43:46;12.90;99.90
39675;DHT22;27790;50.840;4.386;2023-04-01T11:46:20;13.00;99.90
39675;DHT22;27790;50.840;4.386;2023-04-01T11:49:20;13.00;99.90
39675;DHT22;27790;50.840;4.386;2023-04-01T11:57:26;13.00;99.90
39675;DHT22;27790;50.840;4.386;2023-04-01T12:00:03;13.10;99.90
39675;DHT22;27790;50.840;4.386;2023-04-01T12:29:25;13.30;99.90
39675;DHT22;27790;50.840;4.386;2023-04-01T12:45:33;13.00;99.90
39675;DHT22;27790;50.840;4.386;2023-04-01T12:56:42;12.70;99.90
39675;DHT22;27790;50.840;4.386;2023-04-01T13:21:05;12.30;99.90
39675;DHT22;27790;50.840;4.386;2023-04-01T13:26:26;12.20;99.90
39675;DHT22;27790;50.840;4.386;2023-04-01T13:29:04;12.30;99.90
39675;DHT22;27790;50.840;4.386;2023-04-01T13:34:28;12.30;99.90
39675;DHT22;27790;50.840;4.386;2023-04-01T13:45:19;11.90;99.90
39675;DHT22;27790;50.840;4.386;2023-04-01T13:50:41;11.80;99.90
39675;DHT22;27790;50.840;4.386;2023-04-01T13:58:55;12.20;99.90
39675;DHT22;27790;50.840;4.386;2023-04-01T14:01:35;12.20;99.90
39675;DHT22;27790;50.840;4.386;2023-04-01T14:20:34;12.60;99.90
39675;DHT22;27790;50.840;4.386;2023-04-01T14:50:21;12.90;99.90
39675;DHT22;27790;50.840;4.386;2023-04-01T14:58:14;13.10;99.90
39675;DHT22;27790;50.840;4.386;2023-04-01T15:03:38;13.10;99.90
39675;DHT22;27790;50.840;4.386;2023-04-01T15:09:18;13.00;99.90
39675;DHT22;27790;50.840;4.386;2023-04-01T15:11:42;12.90;99.90
39675;DHT22;27790;50.840;4.386;2023-04-01T15:14:26;12.80;99.90
39675;DHT22;27790;50.840;4.386;2023-04-01T15:17:02;12.80;99.90
39675;DHT22;27790;50.840;4.386;2023-04-01T15:22:36;12.80;99.90
39675;DHT22;27790;50.840;4.386;2023-04-01T15:38:41;12.60;99.90
39675;DHT22;27790;50.840;4.386;2023-04-01T15:41:24;12.60;99.90
39675;DHT22;27790;50.840;4.386;2023-04-01T15:43:53;12.50;99.90
39675;DHT22;27790;50.840;4.386;2023-04-01T15:46:31;12.40;99.90
39675;DHT22;27790;50.840;4.386;2023-04-01T15:57:14;12.20;99.90
39675;DHT22;27790;50.840;4.386;2023-04-01T16:00:01;12.00;99.90
39675;DHT22;27790;50.840;4.386;2023-04-01T16:18:44;11.90;99.90
39675;DHT22;27790;50.840;4.386;2023-04-01T16:37:54;11.70;99.90
39675;DHT22;27790;50.840;4.386;2023-04-01T16:48:35;11.70;99.90
39675;DHT22;27790;50.840;4.386;2023-04-01T16:51:14;11.70;99.90
39675;DHT22;27790;50.840;4.386;2023-04-01T16:53:50;11.70;99.90
39675;DHT22;27790;50.840;4.386;2023-04-01T16:56:29;11.70;99.90
39675;DHT22;27790;50.840;4.386;2023-04-01T16:59:27;11.50;99.90
39675;DHT22;27790;50.840;4.386;2023-04-01T17:02:13;11.50;99.90
39675;DHT22;27790;50.840;4.386;2023-04-01T17:13:05;11.60;99.90
39675;DHT22;27790;50.840;4.386;2023-04-01T17:15:46;11.60;99.90
39675;DHT22;27790;50.840;4.386;2023-04-01T17:26:56;11.50;99.90
39675;DHT22;27790;50.840;4.386;2023-04-01T17:32:09;11.40;99.90
39675;DHT22;27790;50.840;4.386;2023-04-01T17:39:54;11.50;99.90
39675;DHT22;27790;50.840;4.386;2023-04-01T18:01:36;11.20;99.90
39675;DHT22;27790;50.840;4.386;2023-04-01T18:07:10;11.20;99.90
39675;DHT22;27790;50.840;4.386;2023-04-01T18:12:29;11.20;99.90
39675;DHT22;27790;50.840;4.386;2023-04-01T18:23:26;11.10;99.90
39675;DHT22;27790;50.840;4.386;2023-04-01T18:26:02;11.10;99.90
39675;DHT22;27790;50.840;4.386;2023-04-01T18:28:41;11.10;99.90
39675;DHT22;27790;50.840;4.386;2023-04-01T18:31:15;11.00;99.90
39675;DHT22;27790;50.840;4.386;2023-04-01T18:39:22;11.00;99.90
39675;DHT22;27790;50.840;4.386;2023-04-01T18:44:43;10.90;99.90
39675;DHT22;27790;50.840;4.386;2023-04-01T18:52:44;10.90;99.90
39675;DHT22;27790;50.840;4.386;2023-04-01T19:00:28;11.00;99.90
39675;DHT22;27790;50.840;4.386;2023-04-01T19:05:36;11.00;99.90
39675;DHT22;27790;50.840;4.386;2023-04-01T19:21:19;11.00;99.90
39675;DHT22;27790;50.840;4.386;2023-04-01T19:39:39;10.80;99.90
39675;DHT22;27790;50.840;4.386;2023-04-01T19:42:30;10.70;99.90
39675;DHT22;27790;50.840;4.386;2023-04-01T19:52:50;10.50;99.90
39675;DHT22;27790;50.840;4.386;2023-04-01T19:55:34;10.40;99.90
39675;DHT22;27790;50.840;4.386;2023-04-01T20:01:00;10.50;99.90
39675;DHT22;27790;50.840;4.386;2023-04-01T20:25:20;10.60;99.90
39675;DHT22;27790;50.840;4.386;2023-04-01T20:51:53;10.70;99.90
39675;DHT22;27790;50.840;4.386;2023-04-01T20:54:35;10.70;99.90
39675;DHT22;27790;50.840;4.386;2023-04-01T20:57:12;10.70;99.90
39675;DHT22;27790;50.840;4.386;2023-04-01T20:59:47;10.70;99.90
39675;DHT22;27790;50.840;4.386;2023-04-01T21:10:27;10.80;99.90
39675;DHT22;27790;50.840;4.386;2023-04-01T21:15:43;10.80;99.90
39675;DHT22;27790;50.840;4.386;2023-04-01T21:20:57;10.80;99.90
39675;DHT22;27790;50.840;4.386;2023-04-01T21:23:35;10.80;99.90
39675;DHT22;27790;50.840;4.386;2023-04-01T21:31:40;10.80;99.90
39675;DHT22;27790;50.840;4.386;2023-04-01T21:58:44;11.20;99.90
39675;DHT22;27790;50.840;4.386;2023-04-01T22:09:18;11.10;99.90
39675;DHT22;27790;50.840;4.386;2023-04-01T22:17:13;11.00;99.90
39675;DHT22;27790;50.840;4.386;2023-04-01T22:22:30;11.20;99.90
39675;DHT22;27790;50.840;4.386;2023-04-01T22:25:00;11.20;99.90
39675;DHT22;27790;50.840;4.386;2023-04-01T22:27:45;11.20;99.90
39675;DHT22;27790;50.840;4.386;2023-04-01T22:30:24;11.20;99.90
39675;DHT22;27790;50.840;4.386;2023-04-01T22:41:07;11.00;99.90
39675;DHT22;27790;50.840;4.386;2023-04-01T22:43:41;10.90;99.90
39675;DHT22;27790;50.840;4.386;2023-04-01T22:49:03;11.00;99.90
39675;DHT22;27790;50.840;4.386;2023-04-01T22:54:25;11.00;99.90
39675;DHT22;27790;50.840;4.386;2023-04-01T22:57:04;10.90;99.90
39675;DHT22;27790;50.840;4.386;2023-04-01T23:02:13;11.00;99.90
39675;DHT22;27790;50.840;4.386;2023-04-01T23:04:43;10.90;99.90
39675;DHT22;27790;50.840;4.386;2023-04-01T23:10:04;10.90;99.90
39675;DHT22;27790;50.840;4.386;2023-04-01T23:12:32;10.80;99.90
39675;DHT22;27790;50.840;4.386;2023-04-01T23:15:00;10.90;99.90
39675;DHT22;27790;50.840;4.386;2023-04-01T23:20:14;10.80;99.90
39675;DHT22;27790;50.840;4.386;2023-04-01T23:33:29;10.20;99.90
39675;DHT22;27790;50.840;4.386;2023-04-01T23:36:00;10.30;99.90
39675;DHT22;27790;50.840;4.386;2023-04-01T23:38:39;10.30;99.90
39675;DHT22;27790;50.840;4.386;2023-04-01T23:43:44;10.30;99.90
39675;DHT22;27790;50.840;4.386;2023-04-01T23:46:11;10.40;99.90
39675;DHT22;27790;50.840;4.386;2023-04-01T23:51:03;10.30;99.90
39675;DHT22;27790;50.840;4.386;2023-04-01T23:53:32;10.20;99.90
39675;DHT22;27790;50.840;4.386;2023-04-01T23:55:58;10.10;99.90
